createdAt,value
2023-02-01T00:00:28.187Z,100728.47
2023-02-01T00:02:55.057Z,100729.69
2023-02-01T00:05:21.510Z,100718.03
2023-02-01T00:07:50.030Z,100719.97
2023-02-01T00:10:16.780Z,100711.44
2023-02-01T00:12:43.282Z,100701.03
2023-02-01T00:15:10.119Z,100700.91
2023-02-01T00:17:36.561Z,100699.31
2023-02-01T00:20:04.166Z,100700.66
2023-02-01T00:22:30.694Z,100700.66
2023-02-01T00:24:57.119Z,100702.25
2023-02-01T00:27:23.580Z,100692.06
2023-02-01T00:29:49.980Z,100702.94
2023-02-01T00:32:16.493Z,100691.25
2023-02-01T00:34:42.916Z,100692.84
2023-02-01T00:37:09.376Z,100693.75
2023-02-01T00:39:35.835Z,100700.91
2023-02-01T00:42:03.172Z,100682.41
2023-02-01T00:44:34.023Z,100696.00
2023-02-01T00:47:01.191Z,100697.28
2023-02-01T00:49:28.833Z,100694.09
2023-02-01T00:51:55.744Z,100692.84
2023-02-01T00:54:22.193Z,100694.44
2023-02-01T00:56:48.635Z,100700.13
2023-02-01T00:59:15.095Z,100696.13
2023-02-01T01:01:41.584Z,100689.56
2023-02-01T01:04:08.034Z,100673.13
2023-02-01T01:06:35.470Z,100681.84
2023-02-01T01:09:06.479Z,100692.84
2023-02-01T01:11:36.448Z,100689.56
2023-02-01T01:14:05.319Z,100679.00
2023-02-01T01:16:32.905Z,100669.28
2023-02-01T01:18:59.704Z,100688.28
2023-02-01T01:21:26.975Z,100673.34
2023-02-01T01:23:53.693Z,100669.41
2023-02-01T01:26:27.094Z,100676.97
2023-02-01T01:28:56.490Z,100653.75
2023-02-01T01:31:23.331Z,100669.59
2023-02-01T01:33:55.149Z,100669.59
2023-02-01T01:36:22.399Z,100669.59
2023-02-01T01:38:49.136Z,100668.34
2023-02-01T01:41:19.721Z,100663.47
2023-02-01T01:43:59.868Z,100664.25
2023-02-01T01:46:30.714Z,100651.34
2023-02-01T01:49:02.687Z,100647.25
2023-02-01T01:51:33.561Z,100633.53
2023-02-01T01:54:18.230Z,100635.91
2023-02-01T01:56:49.919Z,100625.50
2023-02-01T01:59:16.625Z,100633.06
2023-02-01T02:01:43.641Z,100632.63
2023-02-01T02:04:10.283Z,100610.75
2023-02-01T02:06:48.794Z,100607.25
2023-02-01T02:09:16.763Z,100617.22
2023-02-01T02:11:43.315Z,100604.28
2023-02-01T02:14:14.711Z,100613.91
2023-02-01T02:16:53.446Z,100622.09
2023-02-01T02:19:38.019Z,100601.00
2023-02-01T02:22:39.915Z,100601.00
2023-02-01T02:25:21.582Z,100591.69
2023-02-01T02:28:25.635Z,100592.16
2023-02-01T02:31:22.415Z,100575.16
2023-02-01T02:33:59.985Z,100567.56
2023-02-01T02:36:35.389Z,100579.13
2023-02-01T02:39:22.515Z,100557.47
2023-02-01T02:42:11.636Z,100564.28
2023-02-01T02:45:21.372Z,100571.88
2023-02-01T02:48:11.948Z,100560.97
2023-02-01T02:51:05.081Z,100572.31
2023-02-01T02:54:00.963Z,100560.97
2023-02-01T02:56:47.063Z,100549.66
2023-02-01T02:59:36.096Z,100551.69
2023-02-01T03:02:21.798Z,100559.06
2023-02-01T03:04:57.038Z,100562.22
2023-02-01T03:07:50.208Z,100546.03
2023-02-01T03:10:37.764Z,100553.25
2023-02-01T03:13:09.052Z,100549.31
2023-02-01T03:15:57.978Z,100538.91
2023-02-01T03:18:42.025Z,100541.94
2023-02-01T03:21:14.172Z,100545.56
2023-02-01T03:23:43.782Z,100540.22
2023-02-01T03:26:13.764Z,100536.16
2023-02-01T03:28:46.914Z,100528.09
2023-02-01T03:31:15.013Z,100519.94
2023-02-01T03:33:42.787Z,100537.72
2023-02-01T03:36:30.842Z,100549.19
2023-02-01T03:39:16.573Z,100527.28
2023-02-01T03:41:48.723Z,100527.97
2023-02-01T03:44:24.789Z,100515.03
2023-02-01T03:47:04.643Z,100515.63
2023-02-01T03:49:55.165Z,100516.09
2023-02-01T03:52:29.197Z,100524.47
2023-02-01T03:54:56.315Z,100544.19
2023-02-01T03:57:30.789Z,100532.97
2023-02-01T04:00:17.313Z,100544.88
2023-02-01T04:02:44.948Z,100566.97
2023-02-01T04:05:11.728Z,100563.81
2023-02-01T04:07:43.950Z,100555.63
2023-02-01T04:10:11.447Z,100523.69
2023-02-01T04:12:38.135Z,100510.41
2023-02-01T04:15:04.971Z,100506.91
2023-02-01T04:17:31.433Z,100511.19
2023-02-01T04:19:57.995Z,100506.34
2023-02-01T04:22:24.533Z,100510.41
2023-02-01T04:24:51.032Z,100502.38
2023-02-01T04:27:17.667Z,100496.72
2023-02-01T04:29:46.078Z,100491.50
2023-02-01T04:32:12.670Z,100483.78
2023-02-01T04:34:39.157Z,100485.66
2023-02-01T04:37:05.596Z,100491.97
2023-02-01T04:39:32.022Z,100494.47
2023-02-01T04:41:58.415Z,100482.47
2023-02-01T04:44:25.099Z,100480.31
2023-02-01T04:46:51.587Z,100488.13
2023-02-01T04:49:18.020Z,100481.22
2023-02-01T04:51:44.511Z,100481.81
2023-02-01T04:54:13.828Z,100484.06
2023-02-01T04:56:41.033Z,100476.00
2023-02-01T04:59:07.517Z,100481.81
2023-02-01T05:01:34.082Z,100483.50
2023-02-01T05:04:00.563Z,100472.19
2023-02-01T05:06:27.005Z,100477.06
2023-02-01T05:08:53.406Z,100470.63
2023-02-01T05:11:38.540Z,100469.34
2023-02-01T05:14:04.940Z,100478.63
2023-02-01T05:16:31.494Z,100477.97
2023-02-01T05:18:57.971Z,100473.91
2023-02-01T05:21:24.430Z,100473.22
2023-02-01T05:24:09.232Z,100464.41
2023-02-01T05:26:35.874Z,100469.16
2023-02-01T05:29:03.749Z,100460.31
2023-02-01T05:31:30.251Z,100456.22
2023-02-01T05:33:56.766Z,100451.34
2023-02-01T05:36:23.354Z,100450.56
2023-02-01T05:38:49.788Z,100440.16
2023-02-01T05:41:16.444Z,100458.75
2023-02-01T05:43:42.850Z,100474.47
2023-02-01T05:46:11.680Z,100475.88
2023-02-01T05:48:38.158Z,100500.09
2023-02-01T05:51:04.770Z,100508.16
2023-02-01T05:53:31.208Z,100502.16
2023-02-01T05:55:57.657Z,100474.28
2023-02-01T05:58:24.410Z,100462.63
2023-02-01T06:00:50.936Z,100464.66
2023-02-01T06:03:17.397Z,100460.81
2023-02-01T06:05:48.431Z,100456.28
2023-02-01T06:08:15.498Z,100465.09
2023-02-01T06:10:41.989Z,100459.25
2023-02-01T06:13:09.400Z,100463.19
2023-02-01T06:15:36.444Z,100479.84
2023-02-01T06:18:02.878Z,100471.81
2023-02-01T06:20:29.664Z,100484.41
2023-02-01T06:22:56.696Z,100492.09
2023-02-01T06:25:23.125Z,100490.97
2023-02-01T06:27:49.584Z,100489.03
2023-02-01T06:30:16.150Z,100483.72
2023-02-01T06:32:44.085Z,100483.38
2023-02-01T06:35:17.119Z,100484.63
2023-02-01T06:37:44.078Z,100468.22
2023-02-01T06:40:11.255Z,100451.44
2023-02-01T06:42:38.268Z,100462.22
2023-02-01T06:45:05.049Z,100460.97
2023-02-01T06:47:31.463Z,100457.94
2023-02-01T06:49:57.876Z,100459.84
2023-02-01T06:52:24.293Z,100466.75
2023-02-01T06:54:50.845Z,100475.69
2023-02-01T06:57:17.276Z,100470.50
2023-02-01T06:59:43.740Z,100464.97
2023-02-01T07:02:13.525Z,100482.28
2023-02-01T07:04:40.059Z,100482.84
2023-02-01T07:07:06.532Z,100486.59
2023-02-01T07:09:33.035Z,100492.25
2023-02-01T07:11:59.461Z,100481.25
2023-02-01T07:14:25.869Z,100486.16
2023-02-01T07:16:52.303Z,100480.25
2023-02-01T07:19:18.752Z,100487.84
2023-02-01T07:21:45.183Z,100487.06
2023-02-01T07:24:11.629Z,100487.50
2023-02-01T07:26:38.368Z,100454.13
2023-02-01T07:29:04.823Z,100466.09
2023-02-01T07:31:31.824Z,100463.72
2023-02-01T07:33:59.162Z,100467.03
2023-02-01T07:36:25.646Z,100472.34
2023-02-01T07:38:55.308Z,100452.53
2023-02-01T07:41:22.986Z,100466.09
2023-02-01T07:43:51.562Z,100464.22
2023-02-01T07:46:18.390Z,100467.03
2023-02-01T07:48:44.826Z,100471.88
2023-02-01T07:51:16.184Z,100473.94
2023-02-01T07:53:43.648Z,100468.59
2023-02-01T07:56:18.910Z,100462.16
2023-02-01T07:58:55.730Z,100468.59
2023-02-01T08:01:25.519Z,100466.56
2023-02-01T08:03:57.804Z,100469.38
2023-02-01T08:06:25.627Z,100459.44
2023-02-01T08:08:53.124Z,100474.25
2023-02-01T08:11:21.363Z,100472.56
2023-02-01T08:13:48.436Z,100476.50
2023-02-01T08:16:17.164Z,100472.13
2023-02-01T08:18:43.828Z,100449.13
2023-02-01T08:21:12.187Z,100448.19
2023-02-01T08:23:40.779Z,100469.63
2023-02-01T08:26:10.335Z,100468.38
2023-02-01T08:28:38.183Z,100467.91
2023-02-01T08:31:08.150Z,100454.22
2023-02-01T08:33:35.438Z,100469.84
2023-02-01T08:36:03.202Z,100456.59
2023-02-01T08:38:29.969Z,100465.88
2023-02-01T08:40:56.547Z,100474.56
2023-02-01T08:43:23.086Z,100464.06
2023-02-01T08:45:51.178Z,100487.47
2023-02-01T08:48:17.607Z,100485.78
2023-02-01T08:50:44.424Z,100476.94
2023-02-01T08:53:10.811Z,100489.72
2023-02-01T08:55:37.239Z,100482.38
2023-02-01T08:58:03.703Z,100474.47
2023-02-01T09:00:30.117Z,100476.72
2023-02-01T09:02:56.867Z,100483.47
2023-02-01T09:05:29.567Z,100472.97
2023-02-01T09:08:01.745Z,100463.66
2023-02-01T09:10:35.097Z,100449.84
2023-02-01T09:13:02.220Z,100461.84
2023-02-01T09:15:28.768Z,100446.88
2023-02-01T09:17:55.200Z,100460.16
2023-02-01T09:20:25.337Z,100476.25
2023-02-01T09:22:53.673Z,100468.53
2023-02-01T09:25:20.174Z,100464.91
2023-02-01T09:27:46.571Z,100467.03
2023-02-01T09:30:13.679Z,100472.03
2023-02-01T09:32:40.075Z,100476.66
2023-02-01T09:35:06.823Z,100473.50
2023-02-01T09:37:33.905Z,100474.94
2023-02-01T09:40:00.338Z,100470.06
2023-02-01T09:42:32.748Z,100470.41
2023-02-01T09:45:11.071Z,100478.13
2023-02-01T09:47:49.908Z,100473.22
2023-02-01T09:50:23.680Z,100471.84
2023-02-01T09:52:55.170Z,100467.56
2023-02-01T09:55:26.349Z,100467.44
2023-02-01T09:58:12.677Z,100481.13
2023-02-01T10:00:40.816Z,100491.22
2023-02-01T10:03:12.871Z,100474.56
2023-02-01T10:06:16.085Z,100481.81
2023-02-01T10:09:10.471Z,100490.63
2023-02-01T10:12:11.159Z,100492.56
2023-02-01T10:15:02.949Z,100498.53
2023-02-01T10:17:48.218Z,100491.97
2023-02-01T10:20:43.609Z,100492.75
2023-02-01T10:23:41.854Z,100505.81
2023-02-01T10:26:21.552Z,100504.75
2023-02-01T10:28:53.678Z,100507.13
2023-02-01T10:31:25.684Z,100484.78
2023-02-01T10:33:57.874Z,100487.59
2023-02-01T10:36:31.753Z,100498.03
2023-02-01T10:39:00.136Z,100500.09
2023-02-01T10:41:33.584Z,100493.03
2023-02-01T10:44:04.226Z,100487.38
2023-02-01T10:46:31.902Z,100486.56
2023-02-01T10:49:01.701Z,100478.25
2023-02-01T10:51:48.394Z,100462.16
2023-02-01T10:54:23.569Z,100450.38
2023-02-01T10:56:51.019Z,100460.66
2023-02-01T10:59:20.987Z,100451.34
2023-02-01T11:01:49.662Z,100429.47
2023-02-01T11:04:21.602Z,100436.56
2023-02-01T11:06:53.464Z,100424.47
2023-02-01T11:09:21.942Z,100426.38
2023-02-01T11:11:48.295Z,100412.50
2023-02-01T11:14:18.866Z,100418.50
2023-02-01T11:17:20.253Z,100411.25
2023-02-01T11:19:47.979Z,100402.75
2023-02-01T11:22:15.116Z,100388.09
2023-02-01T11:24:46.590Z,100387.63
2023-02-01T11:27:27.213Z,100394.72
2023-02-01T11:30:00.223Z,100397.91
2023-02-01T11:32:28.166Z,100388.28
2023-02-01T11:34:58.548Z,100394.63
2023-02-01T11:37:53.772Z,100383.25
2023-02-01T11:40:21.609Z,100373.78
2023-02-01T11:43:07.881Z,100385.16
2023-02-01T11:45:35.834Z,100363.25
2023-02-01T11:48:02.433Z,100374.47
2023-02-01T11:50:44.212Z,100364.34
2023-02-01T11:53:22.199Z,100373.22
2023-02-01T11:56:01.338Z,100357.75
2023-02-01T11:59:09.574Z,100354.91
2023-02-01T12:01:38.961Z,100341.53
2023-02-01T12:04:23.685Z,100339.03
2023-02-01T12:06:54.653Z,100323.72
2023-02-01T12:09:51.556Z,100332.88
2023-02-01T12:12:35.603Z,100338.56
2023-02-01T12:15:17.298Z,100326.44
2023-02-01T12:18:00.826Z,100328.47
2023-02-01T12:20:42.273Z,100327.22
2023-02-01T12:23:17.771Z,100330.03
2023-02-01T12:25:58.363Z,100317.09
2023-02-01T12:28:59.953Z,100326.44
2023-02-01T12:31:42.484Z,100330.50
2023-02-01T12:34:47.304Z,100323.25
2023-02-01T12:37:56.591Z,100325.31
2023-02-01T12:41:00.199Z,100325.31
2023-02-01T12:43:43.835Z,100320.09
2023-02-01T12:46:22.733Z,100321.69
2023-02-01T12:49:11.009Z,100305.91
2023-02-01T12:51:40.771Z,100303.50
2023-02-01T12:54:12.886Z,100321.34
2023-02-01T12:56:46.432Z,100318.97
2023-02-01T12:59:35.939Z,100318.66
2023-02-01T13:02:17.693Z,100315.81
2023-02-01T13:04:56.798Z,100330.47
2023-02-01T13:07:29.655Z,100319.28
2023-02-01T13:10:03.641Z,100317.69
2023-02-01T13:12:36.964Z,100327.59
2023-02-01T13:15:18.278Z,100328.53
2023-02-01T13:17:47.297Z,100330.28
2023-02-01T13:20:34.156Z,100303.50
2023-02-01T13:23:09.807Z,100278.00
2023-02-01T13:25:47.981Z,100270.06
2023-02-01T13:28:30.616Z,100286.63
2023-02-01T13:31:24.760Z,100305.38
2023-02-01T13:34:29.077Z,100319.19
2023-02-01T13:37:17.386Z,100316.97
2023-02-01T13:40:23.149Z,100338.09
2023-02-01T13:42:52.303Z,100336.50
2023-02-01T13:45:23.378Z,100347.06
2023-02-01T13:47:56.571Z,100327.03
2023-02-01T13:50:28.319Z,100319.47
2023-02-01T13:53:00.747Z,100310.03
2023-02-01T13:55:37.107Z,100320.59
2023-02-01T13:58:14.861Z,100310.97
2023-02-01T14:00:44.894Z,100323.88
2023-02-01T14:03:16.874Z,100315.19
2023-02-01T14:05:43.761Z,100315.38
2023-02-01T14:08:14.116Z,100310.97
2023-02-01T14:10:50.288Z,100325.59
2023-02-01T14:13:33.358Z,100328.09
2023-02-01T14:16:02.978Z,100316.00
2023-02-01T14:18:38.357Z,100319.28
2023-02-01T14:21:37.041Z,100325.06
2023-02-01T14:24:09.762Z,100321.78
2023-02-01T14:26:36.191Z,100316.56
2023-02-01T14:29:21.744Z,100334.84
2023-02-01T14:32:06.914Z,100326.59
2023-02-01T14:34:48.629Z,100338.28
2023-02-01T14:37:18.060Z,100322.53
2023-02-01T14:39:47.622Z,100335.13
2023-02-01T14:42:45.315Z,100331.97
2023-02-01T14:45:22.917Z,100345.34
2023-02-01T14:47:53.397Z,100343.28
2023-02-01T14:50:33.371Z,100340.16
2023-02-01T14:53:13.974Z,100340.59
2023-02-01T14:55:51.088Z,100345.81
2023-02-01T14:58:48.476Z,100342.63
2023-02-01T15:01:29.150Z,100339.47
2023-02-01T15:04:07.631Z,100380.72
2023-02-01T15:07:05.370Z,100383.34
2023-02-01T15:09:35.258Z,100382.72
2023-02-01T15:12:15.697Z,100391.53
2023-02-01T15:14:50.866Z,100395.16
2023-02-01T15:17:23.186Z,100404.56
2023-02-01T15:20:09.114Z,100413.66
2023-02-01T15:22:35.585Z,100390.69
2023-02-01T15:25:03.500Z,100407.06
2023-02-01T15:27:32.130Z,100404.53
2023-02-01T15:30:09.919Z,100400.78
2023-02-01T15:32:41.858Z,100404.84
2023-02-01T15:35:41.468Z,100398.50
2023-02-01T15:38:27.274Z,100402.16
2023-02-01T15:41:03.785Z,100399.44
2023-02-01T15:43:33.665Z,100396.13
2023-02-01T15:46:02.447Z,100403.38
2023-02-01T15:48:38.803Z,100408.28
2023-02-01T15:51:06.003Z,100396.25
2023-02-01T15:53:33.772Z,100409.06
2023-02-01T15:56:04.321Z,100403.53
2023-02-01T15:58:32.664Z,100411.56
2023-02-01T16:01:03.290Z,100409.50
2023-02-01T16:03:39.737Z,100407.47
2023-02-01T16:06:26.652Z,100417.69
2023-02-01T16:08:55.861Z,100426.19
2023-02-01T16:11:24.253Z,100415.31
2023-02-01T16:13:50.805Z,100425.41
2023-02-01T16:16:17.311Z,100427.41
2023-02-01T16:18:43.895Z,100428.66
2023-02-01T16:21:10.505Z,100423.09
2023-02-01T16:23:37.555Z,100435.56
2023-02-01T16:26:07.471Z,100426.38
2023-02-01T16:28:34.767Z,100437.25
2023-02-01T16:31:02.129Z,100427.97
2023-02-01T16:33:28.905Z,100416.56
2023-02-01T16:35:58.111Z,100445.75
2023-02-01T16:38:24.853Z,100438.66
2023-02-01T16:40:51.461Z,100454.69
2023-02-01T16:43:27.342Z,100450.00
2023-02-01T16:45:56.324Z,100468.88
2023-02-01T16:48:29.854Z,100469.44
2023-02-01T16:51:01.081Z,100462.88
2023-02-01T16:53:30.980Z,100455.66
2023-02-01T16:56:01.277Z,100469.31
2023-02-01T16:58:28.327Z,100468.22
2023-02-01T17:00:54.854Z,100483.97
2023-02-01T17:03:22.651Z,100465.84
2023-02-01T17:05:52.921Z,100476.38
2023-02-01T17:08:28.256Z,100485.53
2023-02-01T17:10:54.702Z,100473.88
2023-02-01T17:13:21.154Z,100479.88
2023-02-01T17:15:55.103Z,100477.50
2023-02-01T17:18:21.885Z,100481.69
2023-02-01T17:20:48.732Z,100490.19
2023-02-01T17:23:17.051Z,100491.31
2023-02-01T17:25:43.618Z,100484.88
2023-02-01T17:28:10.345Z,100487.72
2023-02-01T17:30:39.397Z,100475.25
2023-02-01T17:33:22.665Z,100470.38
2023-02-01T17:35:50.223Z,100481.69
2023-02-01T17:38:16.753Z,100470.38
2023-02-01T17:40:43.439Z,100486.44
2023-02-01T17:43:15.854Z,100483.28
2023-02-01T17:45:52.550Z,100489.28
2023-02-01T17:48:23.101Z,100504.25
2023-02-01T17:50:54.603Z,100501.50
2023-02-01T17:53:24.417Z,100496.53
2023-02-01T17:55:52.271Z,100522.81
2023-02-01T17:58:19.384Z,100524.84
2023-02-01T18:00:47.819Z,100500.28
2023-02-01T18:03:25.997Z,100514.75
2023-02-01T18:05:54.283Z,100507.53
2023-02-01T18:08:26.255Z,100512.28
2023-02-01T18:10:56.357Z,100508.63
2023-02-01T18:13:22.834Z,100503.09
2023-02-01T18:15:49.331Z,100508.78
2023-02-01T18:18:15.848Z,100507.53
2023-02-01T18:20:44.517Z,100504.34
2023-02-01T18:23:15.999Z,100500.97
2023-02-01T18:25:42.580Z,100490.53
2023-02-01T18:28:09.041Z,100491.78
2023-02-01T18:30:35.806Z,100485.78
2023-02-01T18:33:02.322Z,100492.91
2023-02-01T18:35:30.850Z,100492.47
2023-02-01T18:37:58.391Z,100489.63
2023-02-01T18:40:32.654Z,100487.25
2023-02-01T18:43:00.015Z,100454.00
2023-02-01T18:45:34.829Z,100479.22
2023-02-01T18:48:02.872Z,100458.88
2023-02-01T18:50:31.451Z,100469.72
2023-02-01T18:52:59.706Z,100473.56
2023-02-01T18:55:27.432Z,100471.97
2023-02-01T18:57:54.477Z,100477.63
2023-02-01T19:00:24.065Z,100464.97
2023-02-01T19:02:50.705Z,100480.13
2023-02-01T19:05:17.769Z,100469.84
2023-02-01T19:07:45.279Z,100449.38
2023-02-01T19:10:19.128Z,100498.03
2023-02-01T19:12:52.503Z,100470.19
2023-02-01T19:15:19.928Z,100484.69
2023-02-01T19:17:49.731Z,100472.78
2023-02-01T19:20:22.693Z,100463.84
2023-02-01T19:22:49.196Z,100492.25
2023-02-01T19:25:18.935Z,100482.84
2023-02-01T19:27:45.706Z,100488.66
2023-02-01T19:30:12.953Z,100492.03
2023-02-01T19:32:40.290Z,100485.34
2023-02-01T19:35:08.277Z,100495.09
2023-02-01T19:37:34.705Z,100475.84
2023-02-01T19:40:01.441Z,100491.47
2023-02-01T19:42:28.747Z,100479.16
2023-02-01T19:44:55.207Z,100487.84
2023-02-01T19:47:21.600Z,100479.16
2023-02-01T19:49:48.022Z,100482.75
2023-02-01T19:52:14.473Z,100475.84
2023-02-01T19:54:40.867Z,100466.22
2023-02-01T19:57:07.296Z,100475.97
2023-02-01T19:59:33.959Z,100470.41
2023-02-01T20:01:59.612Z,100479.16
2023-02-01T20:04:26.354Z,100479.94
2023-02-01T20:06:54.897Z,100475.16
2023-02-01T20:09:27.958Z,100473.47
2023-02-01T20:11:54.532Z,100476.06
2023-02-01T20:14:24.031Z,100463.19
2023-02-01T20:16:50.442Z,100466.34
2023-02-01T20:19:16.889Z,100485.72
2023-02-01T20:21:43.327Z,100494.53
2023-02-01T20:24:13.111Z,100501.00
2023-02-01T20:26:41.086Z,100479.81
2023-02-01T20:29:07.624Z,100475.16
2023-02-01T20:31:34.196Z,100471.09
2023-02-01T20:34:01.573Z,100483.09
2023-02-01T20:36:29.940Z,100463.53
2023-02-01T20:38:57.307Z,100483.22
2023-02-01T20:41:25.332Z,100488.75
2023-02-01T20:43:52.110Z,100485.59
2023-02-01T20:46:18.726Z,100480.84
2023-02-01T20:48:47.166Z,100507.31
2023-02-01T20:51:15.635Z,100500.06
2023-02-01T20:53:42.902Z,100494.75
2023-02-01T20:56:12.754Z,100489.09
2023-02-01T20:58:39.775Z,100465.66
2023-02-01T21:01:07.496Z,100499.16
2023-02-01T21:03:35.266Z,100487.84
2023-02-01T21:06:02.972Z,100498.25
2023-02-01T21:08:29.748Z,100499.84
2023-02-01T21:11:04.617Z,100514.00
2023-02-01T21:13:36.173Z,100453.38
2023-02-01T21:16:03.847Z,100491.94
2023-02-01T21:18:32.010Z,100497.00
2023-02-01T21:21:07.896Z,100472.31
2023-02-01T21:23:44.569Z,100474.03
2023-02-01T21:26:17.464Z,100487.59
2023-02-01T21:28:44.670Z,100506.16
2023-02-01T21:31:11.243Z,100513.66
2023-02-01T21:33:39.141Z,100515.13
2023-02-01T21:36:06.984Z,100515.22
2023-02-01T21:38:34.313Z,100527.25
2023-02-01T21:41:19.824Z,100529.16
2023-02-01T21:43:46.246Z,100528.03
2023-02-01T21:46:12.673Z,100553.06
2023-02-01T21:49:05.039Z,100503.72
2023-02-01T21:51:28.164Z,100559.63
2023-02-01T21:53:54.989Z,100554.97
2023-02-01T21:56:21.504Z,100555.31
2023-02-01T21:58:47.922Z,100559.41
2023-02-01T22:01:14.358Z,100551.38
2023-02-01T22:03:40.838Z,100552.84
2023-02-01T22:06:07.534Z,100531.09
2023-02-01T22:08:38.033Z,100550.47
2023-02-01T22:11:05.431Z,100558.50
2023-02-01T22:13:32.014Z,100564.16
2023-02-01T22:15:58.645Z,100561.66
2023-02-01T22:18:25.222Z,100564.94
2023-02-01T22:20:58.261Z,100578.97
2023-02-01T22:23:27.573Z,100566.41
2023-02-01T22:26:04.721Z,100566.53
2023-02-01T22:28:33.798Z,100587.34
2023-02-01T22:31:02.141Z,100595.84
2023-02-01T22:33:28.714Z,100571.16
2023-02-01T22:35:55.272Z,100573.66
2023-02-01T22:38:21.901Z,100567.19
2023-02-01T22:41:04.227Z,100568.34
2023-02-01T22:43:30.769Z,100563.47
2023-02-01T22:46:02.368Z,100562.22
2023-02-01T22:48:30.670Z,100581.59
2023-02-01T22:51:01.307Z,100579.56
2023-02-01T22:53:29.882Z,100574.69
2023-02-01T22:56:07.333Z,100571.06
2023-02-01T22:58:36.881Z,100573.44
2023-02-01T23:01:11.519Z,100579.13
2023-02-01T23:03:39.342Z,100575.06
2023-02-01T23:06:06.961Z,100575.84
2023-02-01T23:08:35.323Z,100570.94
2023-02-01T23:11:05.368Z,100582.28
2023-02-01T23:13:33.058Z,100589.22
2023-02-01T23:15:59.590Z,100581.03
2023-02-01T23:18:27.999Z,100589.53
2023-02-01T23:20:54.456Z,100556.09
2023-02-01T23:23:20.995Z,100575.72
2023-02-01T23:25:51.320Z,100574.94
2023-02-01T23:28:17.826Z,100593.47
2023-02-01T23:30:45.105Z,100582.59
2023-02-01T23:33:11.546Z,100578.22
2023-02-01T23:35:37.988Z,100592.69
2023-02-01T23:38:04.472Z,100611.28
2023-02-01T23:40:31.102Z,100624.19
2023-02-01T23:43:16.213Z,100608.22
2023-02-01T23:45:42.620Z,100613.78
2023-02-01T23:48:09.048Z,100612.53
2023-02-01T23:50:35.432Z,100627.16
2023-02-01T23:53:01.899Z,100638.34
2023-02-01T23:55:28.652Z,100637.44
2023-02-01T23:57:55.086Z,100624.19
